Bestevaer 2 — PG2801 — position and weather

sailwx.info

Track history (hours):
 
Tides and Currents Weather Stations Pressure Air Temp Water Temp Dewpoint Dewpoint Depression Visibility Wind Speed Wind Dir Waves Ship Positions

Bestevaer 2

Last reported at 2016-Sep-26 01:32 UTC. Time now 2016-Oct-01 17:14 UTC.
Position N 53°03' E 005°24'.

Length 16 m.

Type: Sailing vessel. MMSI: 244030672.

Date/timePositionNaut miles runAvg speedWind from/ knotsBaromVisibWave heightAir tempDewpointWater temp
2016-Sep-26 01:32N 53°03' E 005°24'0 0.0
2016-Sep-26 00:32N 53°03' E 005°24'0 0.0
2016-Sep-25 21:31N 53°03' E 005°24'0 0.0
2016-Sep-25 17:28N 53°03' E 005°24'0 0.0
2016-Sep-25 16:31N 53°03' E 005°24'0 0.0
2016-Sep-25 15:31N 53°03' E 005°24'0 0.0
2016-Sep-25 14:31N 53°03' E 005°24'1 0.3
2016-Sep-25 12:33N 53°03' E 005°23'3 3.5
2016-Sep-25 11:33N 53°00' E 005°20'6 5.6
2016-Sep-25 10:33N 52°55' E 005°19'6 6.3
2016-Sep-25 09:33N 52°49' E 005°18'7 3.3
2016-Sep-25 07:33N 52°42' E 005°17'0 0.0
2016-Sep-25 04:33N 52°42' E 005°17'0 0.0
2016-Sep-25 00:33N 52°42' E 005°17'0 0.0
2016-Sep-24 22:34N 52°42' E 005°17'0 0.0
2016-Sep-24 21:33N 52°42' E 005°17'0 0.0
2016-Sep-24 19:33N 52°42' E 005°17'0 0.0
2016-Sep-24 18:34N 52°42' E 005°17'0 0.0
2016-Sep-24 17:34N 52°42' E 005°17'0 0.3
2016-Sep-24 16:33N 52°42' E 005°18'11 5.5
2016-Sep-24 14:33N 52°31' E 005°14'10 5.0
2016-Sep-24 12:33N 52°23' E 005°04'8 4.2
2016-Sep-24 10:33N 52°25' E 004°51'6 6.0
2016-Sep-24 09:33N 52°27' E 004°41'  
2016-Sep-17 13:31N 52°28' E 004°34'0 0.0
2016-Sep-17 12:31N 52°28' E 004°34'0 0.0
2016-Sep-17 10:31N 52°28' E 004°34'0 0.0
2016-Sep-17 09:31N 52°28' E 004°34'0 0.0
2016-Sep-17 08:31N 52°28' E 004°34'0 0.0
2016-Sep-17 07:31N 52°28' E 004°34'0 0.0
2016-Sep-17 05:31N 52°28' E 004°34'0 0.0
2016-Sep-17 04:25N 52°28' E 004°34'0 0.0
2016-Sep-17 00:31N 52°28' E 004°34'0 0.0
2016-Sep-16 17:31N 52°28' E 004°34'0 0.0
2016-Sep-16 15:31N 52°28' E 004°34'0 0.0
2016-Sep-16 12:31N 52°28' E 004°34'0 0.0
2016-Sep-16 09:31N 52°28' E 004°34'0 0.0
2016-Sep-16 07:33N 52°28' E 004°34'0 0.0
2016-Sep-16 03:33N 52°28' E 004°34'0 0.0
2016-Sep-16 02:33N 52°28' E 004°34'  
Track history (hours):
 
Tides and Currents Weather Stations Pressure Air Temp Water Temp Dewpoint Dewpoint Depression Visibility Wind Speed Wind Dir Waves Ship Positions

Bestevaer 2

Last reported at 2016-Sep-26 01:32 UTC. Time now 2016-Oct-01 17:14 UTC.
Position N 53°03' E 005°24'.

Length 16 m.

Type: Sailing vessel. MMSI: 244030672.

Date/timePositionNaut miles runAvg speedWind from/ knotsBaromVisibWave heightAir tempDewpointWater temp
2016-Sep-26 01:32N 53°03' E 005°24'0 0.0
2016-Sep-26 00:32N 53°03' E 005°24'0 0.0
2016-Sep-25 21:31N 53°03' E 005°24'0 0.0
2016-Sep-25 17:28N 53°03' E 005°24'0 0.0
2016-Sep-25 16:31N 53°03' E 005°24'0 0.0
2016-Sep-25 15:31N 53°03' E 005°24'0 0.0
2016-Sep-25 14:31N 53°03' E 005°24'1 0.3
2016-Sep-25 12:33N 53°03' E 005°23'3 3.5
2016-Sep-25 11:33N 53°00' E 005°20'6 5.6
2016-Sep-25 10:33N 52°55' E 005°19'6 6.3
2016-Sep-25 09:33N 52°49' E 005°18'7 3.3
2016-Sep-25 07:33N 52°42' E 005°17'0 0.0
2016-Sep-25 04:33N 52°42' E 005°17'0 0.0
2016-Sep-25 00:33N 52°42' E 005°17'0 0.0
2016-Sep-24 22:34N 52°42' E 005°17'0 0.0
2016-Sep-24 21:33N 52°42' E 005°17'0 0.0
2016-Sep-24 19:33N 52°42' E 005°17'0 0.0
2016-Sep-24 18:34N 52°42' E 005°17'0 0.0
2016-Sep-24 17:34N 52°42' E 005°17'0 0.3
2016-Sep-24 16:33N 52°42' E 005°18'11 5.5
2016-Sep-24 14:33N 52°31' E 005°14'10 5.0
2016-Sep-24 12:33N 52°23' E 005°04'8 4.2
2016-Sep-24 10:33N 52°25' E 004°51'6 6.0
2016-Sep-24 09:33N 52°27' E 004°41'  
2016-Sep-17 13:31N 52°28' E 004°34'0 0.0
2016-Sep-17 12:31N 52°28' E 004°34'0 0.0
2016-Sep-17 10:31N 52°28' E 004°34'0 0.0
2016-Sep-17 09:31N 52°28' E 004°34'0 0.0
2016-Sep-17 08:31N 52°28' E 004°34'0 0.0
2016-Sep-17 07:31N 52°28' E 004°34'0 0.0
2016-Sep-17 05:31N 52°28' E 004°34'0 0.0
2016-Sep-17 04:25N 52°28' E 004°34'0 0.0
2016-Sep-17 00:31N 52°28' E 004°34'0 0.0
2016-Sep-16 17:31N 52°28' E 004°34'0 0.0
2016-Sep-16 15:31N 52°28' E 004°34'0 0.0
2016-Sep-16 12:31N 52°28' E 004°34'0 0.0
2016-Sep-16 09:31N 52°28' E 004°34'0 0.0
2016-Sep-16 07:33N 52°28' E 004°34'0 0.0
2016-Sep-16 03:33N 52°28' E 004°34'0 0.0
2016-Sep-16 02:33N 52°28' E 004°34'  

Dump ship's entire track history